createdAt,value
2023-09-30T00:02:54.081Z,20.64
2023-09-30T00:08:14.861Z,20.58
2023-09-30T00:13:35.525Z,20.47
2023-09-30T00:18:57.028Z,20.38
2023-09-30T00:24:18.227Z,20.33
2023-09-30T00:29:38.903Z,20.23
2023-09-30T00:35:00.214Z,20.12
2023-09-30T00:40:20.840Z,19.99
2023-09-30T00:45:41.746Z,19.85
2023-09-30T00:51:02.781Z,19.71
2023-09-30T00:56:24.696Z,19.61
2023-09-30T01:01:46.459Z,19.59
2023-09-30T01:07:07.101Z,19.58
2023-09-30T01:12:28.441Z,19.47
2023-09-30T01:17:49.287Z,19.26
2023-09-30T01:23:14.248Z,19.09
2023-09-30T01:28:35.795Z,18.96
2023-09-30T01:33:57.619Z,18.80
2023-09-30T01:39:18.846Z,18.69
2023-09-30T01:44:39.412Z,18.48
2023-09-30T01:50:00.548Z,18.33
2023-09-30T01:55:21.426Z,18.19
2023-09-30T02:00:42.393Z,18.08
2023-09-30T02:06:03.158Z,17.92
2023-09-30T02:11:23.804Z,17.77
2023-09-30T02:16:44.696Z,17.61
2023-09-30T02:22:06.008Z,17.51
2023-09-30T02:27:26.712Z,17.36
2023-09-30T02:32:47.768Z,17.27
2023-09-30T02:38:09.223Z,17.26
2023-09-30T02:43:30.194Z,17.23
2023-09-30T02:48:50.687Z,17.22
2023-09-30T02:54:11.291Z,17.24
2023-09-30T02:59:31.995Z,17.25
2023-09-30T03:04:53.351Z,17.19
2023-09-30T03:10:15.398Z,17.14
2023-09-30T03:15:39.823Z,17.05
2023-09-30T03:21:01.595Z,16.99
2023-09-30T03:26:22.308Z,16.85
2023-09-30T03:31:43.118Z,16.80
2023-09-30T03:37:04.655Z,16.79
2023-09-30T03:42:25.783Z,16.75
2023-09-30T03:47:47.124Z,16.66
2023-09-30T03:53:10.637Z,16.54
2023-09-30T03:58:31.597Z,16.45
2023-09-30T04:03:56.024Z,16.42
2023-09-30T04:09:17.515Z,16.36
2023-09-30T04:14:38.392Z,16.32
2023-09-30T04:19:59.354Z,16.47
2023-09-30T04:25:20.266Z,16.68
2023-09-30T04:30:42.365Z,16.87
2023-09-30T04:36:03.382Z,17.05
2023-09-30T04:41:26.370Z,17.20
2023-09-30T04:46:47.188Z,17.27
2023-09-30T04:52:09.174Z,17.28
2023-09-30T04:57:29.544Z,17.20
2023-09-30T05:02:50.259Z,17.21
2023-09-30T05:08:13.977Z,17.13
2023-09-30T05:13:37.724Z,17.08
2023-09-30T05:18:58.787Z,17.05
2023-09-30T05:24:20.378Z,16.86
2023-09-30T05:29:41.038Z,16.75
2023-09-30T05:35:04.379Z,16.55
2023-09-30T05:40:28.191Z,16.44
2023-09-30T05:45:57.571Z,16.50
2023-09-30T05:51:20.023Z,16.43
2023-09-30T05:56:44.200Z,16.31
2023-09-30T06:02:06.091Z,16.40
2023-09-30T06:07:27.374Z,16.44
2023-09-30T06:12:48.360Z,16.56
2023-09-30T06:18:10.781Z,16.74
2023-09-30T06:23:32.101Z,16.73
2023-09-30T06:28:55.265Z,16.83
2023-09-30T06:34:16.187Z,16.93
2023-09-30T06:39:37.050Z,16.82
2023-09-30T06:44:58.536Z,16.75
2023-09-30T06:50:19.248Z,16.77
2023-09-30T06:55:41.086Z,16.80
2023-09-30T07:01:01.603Z,16.90
2023-09-30T07:06:25.892Z,17.03
2023-09-30T07:11:46.846Z,17.18
2023-09-30T07:17:07.398Z,17.32
2023-09-30T07:22:43.456Z,17.42
2023-09-30T07:28:12.719Z,17.30
2023-09-30T07:33:33.998Z,17.41
2023-09-30T07:38:55.469Z,17.28
2023-09-30T07:44:16.462Z,17.07
2023-09-30T07:49:38.593Z,16.97
2023-09-30T07:54:59.731Z,17.01
2023-09-30T08:00:22.752Z,17.40
2023-09-30T08:05:43.792Z,17.58
2023-09-30T08:11:05.816Z,18.08
2023-09-30T08:16:26.893Z,18.65
2023-09-30T08:21:47.824Z,20.81
2023-09-30T08:27:08.420Z,21.61
2023-09-30T08:32:29.069Z,23.93
2023-09-30T08:37:49.625Z,25.46
2023-09-30T08:43:10.625Z,32.12
2023-09-30T08:48:33.558Z,32.27
2023-09-30T08:53:54.269Z,32.15
2023-09-30T08:59:15.852Z,35.94
2023-09-30T09:04:38.271Z,41.52
2023-09-30T09:10:14.007Z,41.58
2023-09-30T09:15:34.723Z,42.10
2023-09-30T09:21:08.449Z,43.04
2023-09-30T09:26:31.178Z,42.34
2023-09-30T09:31:51.718Z,43.48
2023-09-30T09:37:19.820Z,47.63
2023-09-30T09:42:40.969Z,45.57
2023-09-30T09:48:02.210Z,43.55
2023-09-30T09:53:22.838Z,39.22
2023-09-30T09:58:44.788Z,35.65
2023-09-30T10:04:05.842Z,38.52
2023-09-30T10:09:26.718Z,40.78
2023-09-30T10:14:47.333Z,40.16
2023-09-30T10:20:08.313Z,36.76
2023-09-30T10:25:35.548Z,34.59
2023-09-30T10:31:20.439Z,36.45
2023-09-30T10:36:42.378Z,37.33
2023-09-30T10:42:03.562Z,36.21
2023-09-30T10:47:32.190Z,35.86
2023-09-30T10:52:54.725Z,36.75
2023-09-30T10:58:15.272Z,38.28
2023-09-30T11:03:36.294Z,41.60
2023-09-30T11:09:00.099Z,43.16
2023-09-30T11:14:29.330Z,43.28
2023-09-30T11:19:50.930Z,44.67
2023-09-30T11:25:21.214Z,46.66
2023-09-30T11:31:19.435Z,45.08
2023-09-30T11:36:43.599Z,40.90
2023-09-30T11:42:05.424Z,38.16
2023-09-30T11:47:31.169Z,36.06
2023-09-30T11:52:51.973Z,34.07
2023-09-30T11:58:16.893Z,33.53
2023-09-30T12:03:41.222Z,33.01
2023-09-30T12:09:04.009Z,31.86
2023-09-30T12:14:24.937Z,31.01
2023-09-30T12:19:45.608Z,30.25
2023-09-30T12:25:08.183Z,29.06
2023-09-30T12:30:29.002Z,28.91
2023-09-30T12:35:50.076Z,28.98
2023-09-30T12:41:11.029Z,28.64
2023-09-30T12:46:32.206Z,28.23
2023-09-30T12:51:53.104Z,27.36
2023-09-30T12:57:14.758Z,27.31
2023-09-30T13:02:35.923Z,26.61
2023-09-30T13:07:58.128Z,26.00
2023-09-30T13:13:18.608Z,25.54
2023-09-30T13:18:39.585Z,25.65
2023-09-30T13:24:00.103Z,25.98
2023-09-30T13:29:21.096Z,25.46
2023-09-30T13:34:42.172Z,25.34
2023-09-30T13:40:05.443Z,25.21
2023-09-30T13:45:26.399Z,25.15
2023-09-30T13:50:47.552Z,24.47
2023-09-30T13:56:08.476Z,24.37
2023-09-30T14:01:29.410Z,24.40
2023-09-30T14:06:50.207Z,24.16
2023-09-30T14:12:11.109Z,24.02
2023-09-30T14:17:32.039Z,23.78
2023-09-30T14:22:53.194Z,23.46
2023-09-30T14:28:15.070Z,23.26
2023-09-30T14:33:36.297Z,22.84
2023-09-30T14:39:08.126Z,22.73
2023-09-30T14:44:34.947Z,22.55
2023-09-30T14:49:55.754Z,22.56
2023-09-30T14:55:17.598Z,22.46
2023-09-30T15:00:38.598Z,22.50
2023-09-30T15:06:00.507Z,22.05
2023-09-30T15:11:21.542Z,22.00
2023-09-30T15:16:42.707Z,21.94
2023-09-30T15:22:03.419Z,21.71
2023-09-30T15:27:26.073Z,21.48
2023-09-30T15:32:47.458Z,21.22
2023-09-30T15:38:09.096Z,21.08
2023-09-30T15:43:37.432Z,20.93
2023-09-30T15:48:58.525Z,20.71
2023-09-30T15:54:19.755Z,20.49
2023-09-30T15:59:41.499Z,20.27
2023-09-30T16:05:03.133Z,20.05
2023-09-30T16:10:24.733Z,19.81
2023-09-30T16:15:47.259Z,19.57
2023-09-30T16:21:08.776Z,19.31
2023-09-30T16:26:30.191Z,19.05
2023-09-30T16:31:51.706Z,18.77
2023-09-30T16:37:13.318Z,18.47
2023-09-30T16:42:34.483Z,18.17
2023-09-30T16:47:56.212Z,17.92
2023-09-30T16:53:18.110Z,17.71
2023-09-30T16:58:39.110Z,17.52
2023-09-30T17:04:00.722Z,17.39
2023-09-30T17:09:21.836Z,17.27
2023-09-30T17:14:42.630Z,17.07
2023-09-30T17:20:08.613Z,16.93
2023-09-30T17:25:29.808Z,16.83
2023-09-30T17:30:50.790Z,16.71
2023-09-30T17:36:11.804Z,16.43
2023-09-30T17:41:34.948Z,16.23
2023-09-30T17:46:57.800Z,16.07
2023-09-30T17:52:18.572Z,15.90
2023-09-30T17:57:39.628Z,15.82
2023-09-30T18:03:00.337Z,15.80
2023-09-30T18:08:21.175Z,15.84
2023-09-30T18:13:42.010Z,15.81
2023-09-30T18:19:02.951Z,15.77
2023-09-30T18:24:23.622Z,15.79
2023-09-30T18:29:44.509Z,15.81
2023-09-30T18:35:06.901Z,15.80
2023-09-30T18:40:29.635Z,15.78
2023-09-30T18:45:50.470Z,15.71
2023-09-30T18:51:13.103Z,15.67
2023-09-30T18:56:33.930Z,15.63
2023-09-30T19:01:54.588Z,15.59
2023-09-30T19:07:15.314Z,15.51
2023-09-30T19:12:36.459Z,15.46
2023-09-30T19:17:57.798Z,15.42
2023-09-30T19:23:18.401Z,15.33
2023-09-30T19:28:39.553Z,15.31
2023-09-30T19:34:00.389Z,15.28
2023-09-30T19:39:21.290Z,15.23
2023-09-30T19:44:43.780Z,15.15
2023-09-30T19:50:06.640Z,15.05
2023-09-30T19:55:27.865Z,14.99
2023-09-30T20:00:49.578Z,14.84
2023-09-30T20:06:19.792Z,14.69
2023-09-30T20:11:40.554Z,14.46
2023-09-30T20:17:01.826Z,14.13
2023-09-30T20:22:22.920Z,13.97
2023-09-30T20:27:43.946Z,13.90
2023-09-30T20:33:04.437Z,13.87
2023-09-30T20:38:25.106Z,13.77
2023-09-30T20:43:46.019Z,13.74
2023-09-30T20:49:06.783Z,13.69
2023-09-30T20:54:28.295Z,13.69
2023-09-30T20:59:49.622Z,13.72
2023-09-30T21:05:10.889Z,13.64
2023-09-30T21:10:32.596Z,13.62
2023-09-30T21:15:53.448Z,13.54
2023-09-30T21:21:14.627Z,13.32
2023-09-30T21:26:35.340Z,13.22
2023-09-30T21:31:56.870Z,13.19
2023-09-30T21:37:17.673Z,13.18
2023-09-30T21:42:38.432Z,13.22
2023-09-30T21:47:59.306Z,13.35
2023-09-30T21:53:19.975Z,13.36
2023-09-30T21:58:40.550Z,13.23
2023-09-30T22:04:04.184Z,13.17
2023-09-30T22:09:27.101Z,12.99
2023-09-30T22:14:47.875Z,13.05
2023-09-30T22:20:11.626Z,13.04
2023-09-30T22:25:35.041Z,13.11
2023-09-30T22:30:56.517Z,13.14
2023-09-30T22:36:17.784Z,13.08
2023-09-30T22:41:38.392Z,13.05
2023-09-30T22:46:59.348Z,13.02
2023-09-30T22:52:20.011Z,13.02
2023-09-30T22:57:44.857Z,13.04
2023-09-30T23:03:05.777Z,13.10
2023-09-30T23:08:26.576Z,13.14
2023-09-30T23:13:47.372Z,13.10
2023-09-30T23:19:08.941Z,13.08
2023-09-30T23:24:30.786Z,13.04
2023-09-30T23:29:51.644Z,13.01
2023-09-30T23:35:15.623Z,12.95
2023-09-30T23:40:39.193Z,12.95
2023-09-30T23:46:00.214Z,12.96
2023-09-30T23:51:21.304Z,12.96
2023-09-30T23:56:44.363Z,12.90
